createdAt,value
2019-04-28T00:02:06.230Z,47.50
2019-04-28T00:04:36.113Z,47.80
2019-04-28T00:07:25.357Z,47.50
2019-04-28T00:09:55.546Z,47.30
2019-04-28T00:12:25.617Z,47.30
2019-04-28T00:14:55.434Z,47.90
2019-04-28T00:17:25.309Z,47.90
2019-04-28T00:19:56.834Z,48.30
2019-04-28T00:22:31.246Z,48.80
2019-04-28T00:25:11.893Z,48.70
2019-04-28T00:27:41.781Z,48.50
2019-04-28T00:30:12.931Z,48.70
2019-04-28T00:32:42.815Z,49.20
2019-04-28T00:35:12.694Z,48.50
2019-04-28T00:37:42.753Z,48.50
2019-04-28T00:40:12.639Z,48.50
2019-04-28T00:42:42.525Z,48.60
2019-04-28T00:45:12.977Z,48.90
2019-04-28T00:47:43.115Z,49.40
2019-04-28T00:50:13.992Z,50.30
2019-04-28T00:52:43.793Z,50.90
2019-04-28T00:55:13.680Z,51.40
2019-04-28T00:57:43.557Z,52.00
2019-04-28T01:00:14.412Z,52.10
2019-04-28T01:02:44.289Z,52.10
2019-04-28T01:05:14.224Z,51.80
2019-04-28T01:07:44.111Z,52.10
2019-04-28T01:10:13.998Z,51.70
2019-04-28T01:12:46.492Z,51.90
2019-04-28T01:15:16.986Z,52.10
2019-04-28T01:17:49.684Z,52.70
2019-04-28T01:20:24.809Z,52.30
2019-04-28T01:22:54.609Z,52.50
2019-04-28T01:25:24.573Z,52.60
2019-04-28T01:27:56.016Z,52.70
2019-04-28T01:30:27.540Z,52.60
2019-04-28T01:33:14.341Z,52.70
2019-04-28T01:35:44.157Z,52.90
2019-04-28T01:38:13.975Z,53.10
2019-04-28T01:40:43.854Z,53.30
2019-04-28T01:43:13.674Z,53.70
2019-04-28T01:45:43.557Z,53.70
2019-04-28T01:48:13.439Z,53.80
2019-04-28T01:50:43.242Z,53.80
2019-04-28T01:53:13.117Z,53.90
2019-04-28T01:55:43.006Z,54.30
2019-04-28T01:58:12.818Z,54.50
2019-04-28T02:00:42.706Z,54.30
2019-04-28T02:03:12.654Z,54.40
2019-04-28T02:05:42.538Z,54.30
2019-04-28T02:08:12.418Z,54.50
2019-04-28T02:10:42.237Z,54.40
2019-04-28T02:13:12.050Z,54.60
2019-04-28T02:15:41.938Z,55.60
2019-04-28T02:18:11.749Z,54.60
2019-04-28T02:20:43.213Z,54.60
2019-04-28T02:23:19.708Z,55.00
2019-04-28T02:25:49.836Z,54.10
2019-04-28T02:28:19.921Z,54.10
2019-04-28T02:30:53.792Z,53.90
2019-04-28T02:33:22.539Z,53.60
2019-04-28T02:35:52.362Z,53.70
2019-04-28T02:38:22.153Z,53.50
2019-04-28T02:40:52.006Z,53.80
2019-04-28T02:43:21.819Z,53.80
2019-04-28T02:45:53.470Z,54.10
2019-04-28T02:48:24.704Z,54.20
2019-04-28T02:51:01.257Z,55.20
2019-04-28T02:53:33.718Z,54.60
2019-04-28T02:56:03.774Z,54.80
2019-04-28T02:58:34.656Z,55.00
2019-04-28T03:01:12.841Z,55.10
2019-04-28T03:03:35.963Z,55.40
2019-04-28T03:06:05.914Z,55.70
2019-04-28T03:08:35.726Z,55.80
2019-04-28T03:11:05.564Z,55.80
2019-04-28T03:13:35.375Z,55.70
2019-04-28T03:16:05.630Z,55.40
2019-04-28T03:18:35.515Z,55.40
2019-04-28T03:21:05.321Z,55.40
2019-04-28T03:23:35.147Z,55.60
2019-04-28T03:26:11.161Z,55.60
2019-04-28T03:29:00.965Z,55.90
2019-04-28T03:32:01.052Z,55.90
2019-04-28T03:34:04.687Z,56.10
2019-04-28T03:36:34.836Z,56.50
2019-04-28T03:39:06.758Z,56.90
2019-04-28T03:41:40.340Z,57.30
2019-04-28T03:44:11.346Z,58.10
2019-04-28T03:46:42.222Z,57.50
2019-04-28T03:49:14.177Z,57.20
2019-04-28T03:51:43.982Z,57.40
2019-04-28T03:54:13.790Z,57.20
2019-04-28T03:56:43.678Z,57.00
2019-04-28T03:59:13.516Z,56.80
2019-04-28T04:01:55.607Z,56.90
2019-04-28T04:04:15.170Z,57.00
2019-04-28T04:06:45.012Z,56.40
2019-04-28T04:09:15.250Z,56.40
2019-04-28T04:12:03.568Z,56.60
2019-04-28T04:14:44.689Z,57.00
2019-04-28T04:17:25.161Z,57.30
2019-04-28T04:19:54.975Z,57.50
2019-04-28T04:22:24.785Z,58.10
2019-04-28T04:24:54.687Z,58.40
2019-04-28T04:27:24.562Z,58.70
2019-04-28T04:29:55.347Z,58.70
2019-04-28T04:32:27.137Z,59.10
2019-04-28T04:34:56.627Z,58.80
2019-04-28T04:37:30.782Z,58.80
2019-04-28T04:40:01.663Z,59.20
2019-04-28T04:42:32.686Z,59.30
2019-04-28T04:45:02.517Z,59.20
2019-04-28T04:47:32.967Z,59.40
2019-04-28T04:50:03.440Z,59.70
2019-04-28T04:52:33.273Z,59.60
2019-04-28T04:55:05.659Z,59.10
2019-04-28T04:57:35.557Z,59.50
2019-04-28T05:00:10.027Z,59.00
2019-04-28T05:02:52.860Z,58.30
2019-04-28T05:05:23.757Z,58.90
2019-04-28T05:07:53.658Z,59.30
2019-04-28T05:10:23.494Z,59.40
2019-04-28T05:12:53.305Z,59.10
2019-04-28T05:15:23.481Z,59.00
2019-04-28T05:17:53.298Z,59.10
2019-04-28T05:20:23.106Z,59.30
2019-04-28T05:22:57.908Z,59.40
2019-04-28T05:25:34.273Z,59.00
2019-04-28T05:28:04.285Z,59.30
2019-04-28T05:30:34.756Z,59.20
2019-04-28T05:33:05.597Z,59.30
2019-04-28T05:35:35.740Z,59.10
2019-04-28T05:38:05.620Z,59.40
2019-04-28T05:40:35.848Z,58.70
2019-04-28T05:43:06.042Z,57.80
2019-04-28T05:45:36.841Z,55.10
2019-04-28T05:48:08.978Z,54.80
2019-04-28T05:50:43.173Z,54.00
2019-04-28T05:53:21.772Z,51.70
2019-04-28T05:55:53.214Z,50.90
2019-04-28T05:58:27.373Z,48.70
2019-04-28T06:01:10.139Z,46.30
2019-04-28T06:03:40.529Z,46.40
2019-04-28T06:06:10.458Z,46.10
2019-04-28T06:08:56.988Z,49.00
2019-04-28T06:11:34.366Z,49.50
2019-04-28T06:14:02.572Z,48.30
2019-04-28T06:16:32.410Z,48.10
2019-04-28T06:19:02.218Z,44.90
2019-04-28T06:21:32.102Z,42.80
2019-04-28T06:24:01.923Z,40.20
2019-04-28T06:26:31.734Z,40.50
2019-04-28T06:29:01.546Z,40.60
2019-04-28T06:31:31.359Z,39.40
2019-04-28T06:34:01.165Z,39.20
2019-04-28T06:36:30.973Z,37.80
2019-04-28T06:39:01.205Z,36.80
2019-04-28T06:41:32.221Z,36.60
2019-04-28T06:44:02.069Z,36.70
2019-04-28T06:46:32.275Z,35.60
2019-04-28T06:49:02.099Z,35.70
2019-04-28T06:51:31.968Z,36.50
2019-04-28T06:54:02.891Z,36.30
2019-04-28T06:56:32.708Z,36.90
2019-04-28T06:59:02.593Z,38.70
2019-04-28T07:01:32.642Z,37.90
2019-04-28T07:04:02.793Z,37.20
2019-04-28T07:06:32.965Z,38.30
2019-04-28T07:09:02.942Z,39.40
2019-04-28T07:11:33.685Z,39.10
2019-04-28T07:14:03.637Z,39.00
2019-04-28T07:16:34.105Z,39.10
2019-04-28T07:19:04.283Z,39.50
2019-04-28T07:21:44.894Z,41.10
2019-04-28T07:24:14.775Z,40.90
2019-04-28T07:26:44.581Z,40.60
2019-04-28T07:29:14.417Z,39.90
2019-04-28T07:31:44.370Z,40.10
2019-04-28T07:34:14.258Z,39.40
2019-04-28T07:36:44.137Z,38.00
2019-04-28T07:39:13.962Z,37.60
2019-04-28T07:41:43.833Z,37.40
2019-04-28T07:44:15.297Z,37.90
2019-04-28T07:46:45.497Z,36.70
2019-04-28T07:49:15.385Z,36.70
2019-04-28T07:52:03.414Z,37.80
2019-04-28T07:54:33.294Z,37.20
2019-04-28T07:57:03.576Z,36.40
2019-04-28T07:59:33.401Z,37.00
2019-04-28T08:02:04.263Z,36.40
2019-04-28T08:04:34.216Z,36.50
2019-04-28T08:07:04.029Z,36.60
2019-04-28T08:09:33.977Z,37.30
2019-04-28T08:12:04.134Z,36.40
2019-04-28T08:14:33.946Z,36.30
2019-04-28T08:17:03.782Z,37.20
2019-04-28T08:19:35.278Z,37.30
2019-04-28T08:22:05.149Z,37.20
2019-04-28T08:24:35.028Z,37.20
2019-04-28T08:27:05.025Z,36.50
2019-04-28T08:29:35.237Z,36.00
2019-04-28T08:32:25.037Z,36.30
2019-04-28T08:34:54.841Z,36.10
2019-04-28T08:37:24.722Z,36.40
2019-04-28T08:39:54.550Z,37.80
2019-04-28T08:42:24.427Z,37.40
2019-04-28T08:44:54.253Z,36.40
2019-04-28T08:47:24.396Z,37.10
2019-04-28T08:49:54.277Z,37.80
2019-04-28T08:52:24.090Z,37.40
2019-04-28T08:54:53.897Z,36.90
2019-04-28T08:57:23.774Z,37.50
2019-04-28T08:59:53.666Z,38.30
2019-04-28T09:02:24.011Z,38.20
2019-04-28T09:04:53.846Z,37.70
2019-04-28T09:07:23.667Z,36.00
2019-04-28T09:09:53.482Z,35.80
2019-04-28T09:12:23.323Z,35.10
2019-04-28T09:14:53.229Z,34.20
2019-04-28T09:17:23.367Z,33.70
2019-04-28T09:19:53.242Z,34.90
2019-04-28T09:22:23.051Z,34.20
2019-04-28T09:24:52.865Z,33.90
2019-04-28T09:27:22.749Z,33.90
2019-04-28T09:29:52.565Z,33.80
2019-04-28T09:32:22.375Z,33.50
2019-04-28T09:34:52.254Z,35.20
2019-04-28T09:37:22.395Z,34.10
2019-04-28T09:39:54.260Z,35.40
2019-04-28T09:42:31.664Z,36.10
2019-04-28T09:45:09.144Z,35.10
2019-04-28T09:47:39.429Z,36.70
2019-04-28T09:50:09.541Z,35.80
2019-04-28T09:52:39.374Z,36.00
2019-04-28T09:55:09.190Z,35.50
2019-04-28T09:57:39.009Z,34.20
2019-04-28T10:00:10.356Z,31.50
2019-04-28T10:02:40.170Z,31.20
2019-04-28T10:05:10.449Z,30.00
2019-04-28T10:07:40.329Z,31.20
2019-04-28T10:10:10.146Z,29.60
2019-04-28T10:12:40.018Z,32.20
2019-04-28T10:15:10.165Z,32.20
2019-04-28T10:17:40.186Z,33.10
2019-04-28T10:20:10.493Z,33.70
2019-04-28T10:22:40.605Z,32.50
2019-04-28T10:25:10.510Z,33.00
2019-04-28T10:27:40.389Z,33.70
2019-04-28T10:30:10.643Z,32.90
2019-04-28T10:32:40.450Z,32.50
2019-04-28T10:35:10.668Z,31.60
2019-04-28T10:37:40.823Z,30.20
2019-04-28T10:42:54.614Z,32.30
2019-04-28T10:45:26.074Z,31.00
2019-04-28T10:47:56.125Z,31.70
2019-04-28T10:50:26.010Z,32.50
2019-04-28T10:52:55.814Z,33.20
2019-04-28T10:55:25.634Z,33.80
2019-04-28T10:57:55.513Z,32.90
2019-04-28T11:00:26.970Z,31.60
2019-04-28T11:02:57.233Z,31.70
2019-04-28T11:05:34.594Z,32.60
2019-04-28T11:08:06.041Z,32.20
2019-04-28T11:10:36.021Z,32.80
2019-04-28T11:13:05.993Z,32.90
2019-04-28T11:15:37.476Z,34.30
2019-04-28T11:18:08.999Z,35.40
2019-04-28T11:20:38.813Z,33.80
2019-04-28T11:23:08.754Z,34.90
2019-04-28T11:25:38.585Z,34.70
2019-04-28T11:28:08.866Z,35.10
2019-04-28T11:30:39.131Z,35.10
2019-04-28T11:33:22.892Z,33.80
2019-04-28T11:36:05.426Z,34.00
2019-04-28T11:38:35.237Z,33.30
2019-04-28T11:41:05.193Z,34.30
2019-04-28T11:43:36.094Z,35.60
2019-04-28T11:46:07.554Z,34.80
2019-04-28T11:48:37.365Z,33.90
2019-04-28T11:51:07.247Z,35.00
2019-04-28T11:53:37.144Z,35.00
2019-04-28T11:56:07.053Z,33.90
2019-04-28T11:58:36.942Z,33.10
2019-04-28T12:01:07.998Z,34.20
2019-04-28T12:03:37.834Z,35.10
2019-04-28T12:06:07.714Z,36.20
2019-04-28T12:08:37.594Z,35.80
2019-04-28T12:11:27.516Z,34.60
2019-04-28T12:14:02.199Z,34.20
2019-04-28T12:16:39.634Z,36.30
2019-04-28T12:19:11.097Z,37.00
2019-04-28T12:21:41.002Z,37.10
2019-04-28T12:24:10.878Z,37.50
2019-04-28T12:26:41.049Z,37.60
2019-04-28T12:29:10.934Z,36.60
2019-04-28T12:31:40.903Z,36.80
2019-04-28T12:34:11.146Z,37.10
2019-04-28T12:36:41.034Z,37.80
2019-04-28T12:39:10.917Z,37.60
2019-04-28T12:41:40.809Z,38.50
2019-04-28T12:44:10.634Z,39.10
2019-04-28T12:46:40.445Z,38.40
2019-04-28T12:49:11.907Z,38.60
2019-04-28T12:51:42.145Z,39.90
2019-04-28T12:54:13.608Z,39.20
2019-04-28T12:56:43.416Z,38.20
2019-04-28T12:59:15.274Z,39.10
2019-04-28T13:01:46.797Z,38.30
2019-04-28T13:04:34.598Z,38.50
2019-04-28T13:07:05.850Z,39.80
2019-04-28T13:09:36.129Z,38.00
2019-04-28T13:12:06.302Z,38.40
2019-04-28T13:14:36.109Z,37.40
2019-04-28T13:17:05.990Z,39.10
2019-04-28T13:19:35.798Z,37.50
2019-04-28T13:22:05.836Z,38.00
2019-04-28T13:24:35.795Z,38.80
2019-04-28T13:27:05.597Z,39.70
2019-04-28T13:29:35.442Z,39.20
2019-04-28T13:32:05.398Z,39.10
2019-04-28T13:34:36.863Z,39.20
2019-04-28T13:37:06.778Z,39.00
2019-04-28T13:39:38.186Z,40.20
2019-04-28T13:42:08.043Z,39.50
2019-04-28T13:44:51.739Z,40.70
2019-04-28T13:47:22.193Z,41.40
2019-04-28T13:49:53.662Z,39.50
2019-04-28T13:52:23.596Z,38.90
2019-04-28T13:54:55.086Z,38.60
2019-04-28T13:57:24.986Z,37.80
2019-04-28T13:59:56.500Z,40.50
2019-04-28T14:02:43.334Z,39.10
2019-04-28T14:05:14.790Z,39.70
2019-04-28T14:07:44.608Z,39.10
2019-04-28T14:10:14.569Z,39.20
2019-04-28T14:12:44.552Z,37.70
2019-04-28T14:15:14.670Z,37.20
2019-04-28T14:17:44.661Z,38.60
2019-04-28T14:20:15.869Z,38.70
2019-04-28T14:22:46.051Z,37.30
2019-04-28T14:25:15.981Z,38.90
2019-04-28T14:27:45.745Z,37.30
2019-04-28T14:30:15.901Z,37.50
2019-04-28T14:32:45.874Z,38.70
2019-04-28T14:35:15.690Z,39.40
2019-04-28T14:37:45.497Z,40.40
2019-04-28T14:40:15.398Z,40.70
2019-04-28T14:42:45.229Z,41.80
2019-04-28T14:45:15.881Z,41.90
2019-04-28T14:47:45.777Z,41.80
2019-04-28T14:50:15.637Z,41.70
2019-04-28T14:52:45.586Z,42.30
2019-04-28T14:55:15.877Z,41.30
2019-04-28T14:57:45.693Z,41.80
2019-04-28T15:03:16.045Z,42.60
2019-04-28T15:05:59.683Z,42.80
2019-04-28T15:08:37.057Z,45.50
2019-04-28T15:14:03.133Z,48.00
2019-04-28T15:16:33.048Z,48.50
2019-04-28T15:19:02.941Z,48.40
2019-04-28T15:21:32.749Z,49.50
2019-04-28T15:24:02.561Z,49.50
2019-04-28T15:26:32.442Z,48.50
2019-04-28T15:29:02.579Z,48.00
2019-04-28T15:31:33.357Z,48.80
2019-04-28T15:34:04.255Z,49.60
2019-04-28T15:36:34.142Z,48.50
2019-04-28T15:39:07.396Z,48.30
2019-04-28T15:41:37.341Z,48.70
2019-04-28T15:44:07.593Z,49.30
2019-04-28T15:46:38.546Z,49.60
2019-04-28T15:49:08.426Z,50.60
2019-04-28T15:51:38.832Z,49.80
2019-04-28T15:54:08.698Z,50.60
2019-04-28T15:56:40.510Z,50.50
2019-04-28T15:59:10.453Z,50.00
2019-04-28T16:01:40.329Z,50.40
2019-04-28T16:04:10.230Z,50.10
2019-04-28T16:06:40.120Z,50.30
2019-04-28T16:09:11.974Z,51.10
2019-04-28T16:11:42.424Z,50.00
2019-04-28T16:14:12.306Z,49.50
2019-04-28T16:16:42.124Z,49.40
2019-04-28T16:19:12.001Z,49.50
2019-04-28T16:21:41.886Z,49.90
2019-04-28T16:24:12.734Z,50.00
2019-04-28T16:26:43.786Z,49.90
2019-04-28T16:29:13.666Z,49.70
2019-04-28T16:31:43.547Z,49.70
2019-04-28T16:34:13.384Z,50.00
2019-04-28T16:36:43.189Z,50.60
2019-04-28T16:39:13.071Z,51.20
2019-04-28T16:41:43.489Z,51.30
2019-04-28T16:44:13.859Z,51.80
2019-04-28T16:46:43.679Z,51.60
2019-04-28T16:49:13.483Z,51.20
2019-04-28T16:51:43.353Z,51.20
2019-04-28T16:54:13.161Z,51.10
2019-04-28T17:02:30.206Z,51.20
2019-04-28T17:05:00.026Z,51.20
2019-04-28T17:07:29.842Z,51.30
2019-04-28T17:10:02.637Z,51.20
2019-04-28T17:12:32.521Z,51.70
2019-04-28T17:15:02.473Z,51.30
2019-04-28T17:17:32.455Z,51.10
2019-04-28T17:20:02.735Z,51.10
2019-04-28T17:22:34.005Z,51.60
2019-04-28T17:25:05.736Z,51.70
2019-04-28T17:27:35.548Z,52.30
2019-04-28T17:30:06.978Z,51.90
2019-04-28T17:32:37.100Z,51.30
2019-04-28T17:35:08.111Z,51.60
2019-04-28T17:37:38.001Z,51.90
2019-04-28T17:40:07.885Z,52.50
2019-04-28T17:42:38.281Z,52.60
2019-04-28T17:45:08.390Z,51.80
2019-04-28T17:47:38.341Z,52.00
2019-04-28T17:50:09.871Z,52.00
2019-04-28T17:52:39.749Z,52.40
2019-04-28T17:55:09.657Z,52.90
2019-04-28T17:57:39.465Z,52.80
2019-04-28T18:00:11.806Z,52.50
2019-04-28T18:03:00.106Z,53.00
2019-04-28T18:08:20.754Z,53.00
2019-04-28T18:10:44.661Z,52.90
2019-04-28T18:13:14.866Z,53.50
2019-04-28T18:16:02.818Z,53.40
2019-04-28T18:21:29.281Z,53.90
2019-04-28T18:23:59.161Z,53.60
2019-04-28T18:26:29.498Z,53.80
2019-04-28T18:28:59.478Z,53.90
2019-04-28T18:37:28.081Z,54.50
2019-04-28T18:40:03.628Z,54.30
2019-04-28T18:42:47.511Z,54.80
2019-04-28T18:45:17.662Z,54.30
2019-04-28T18:47:47.626Z,54.50
2019-04-28T18:50:17.510Z,54.60
2019-04-28T18:52:47.803Z,54.40
2019-04-28T18:55:17.607Z,54.30
2019-04-28T18:57:47.493Z,54.20
2019-04-28T19:00:19.014Z,53.10
2019-04-28T19:02:49.004Z,53.40
2019-04-28T19:05:20.081Z,53.30
2019-04-28T19:07:51.997Z,56.20
2019-04-28T19:10:23.581Z,56.30
2019-04-28T19:13:04.406Z,55.90
2019-04-28T19:15:38.622Z,54.70
2019-04-28T19:18:12.937Z,54.40
2019-04-28T19:20:42.889Z,53.60
2019-04-28T19:23:13.003Z,52.80
2019-04-28T19:25:47.534Z,52.90
2019-04-28T19:28:48.511Z,52.70
2019-04-28T19:31:22.682Z,52.40
2019-04-28T19:33:52.574Z,51.90
2019-04-28T19:36:22.821Z,51.90
2019-04-28T19:39:03.076Z,52.10
2019-04-28T19:41:24.205Z,52.10
2019-04-28T19:43:54.109Z,51.90
2019-04-28T19:46:23.942Z,52.10
2019-04-28T19:48:53.829Z,48.70
2019-04-28T19:51:31.651Z,50.50
2019-04-28T19:53:55.697Z,50.90
2019-04-28T19:56:27.142Z,50.50
2019-04-28T19:58:58.677Z,50.10
2019-04-28T20:01:30.113Z,50.20
2019-04-28T20:03:59.998Z,51.40
2019-04-28T20:06:29.942Z,48.70
2019-04-28T20:08:59.843Z,48.80
2019-04-28T20:11:29.719Z,45.50
2019-04-28T20:13:59.601Z,47.80
2019-04-28T20:16:30.481Z,46.30
2019-04-28T20:19:00.677Z,42.80
2019-04-28T20:21:30.560Z,40.00
2019-04-28T20:24:00.389Z,41.80
2019-04-28T20:26:30.269Z,39.40
2019-04-28T20:29:00.141Z,39.40
2019-04-28T20:31:29.977Z,40.60
2019-04-28T20:34:00.018Z,39.80
2019-04-28T20:36:33.042Z,39.40
2019-04-28T20:41:47.601Z,40.00
2019-04-28T20:44:17.745Z,39.90
2019-04-28T20:46:47.706Z,40.10
2019-04-28T20:49:17.576Z,40.10
2019-04-28T20:51:47.797Z,40.40
2019-04-28T20:54:17.679Z,40.20
2019-04-28T20:56:47.493Z,40.50
2019-04-28T20:59:17.383Z,41.60
2019-04-28T21:01:47.361Z,41.30
2019-04-28T21:04:17.233Z,41.10
2019-04-28T21:06:47.059Z,40.90
2019-04-28T21:09:17.021Z,42.00
2019-04-28T21:11:46.900Z,42.00
2019-04-28T21:14:16.781Z,41.60
2019-04-28T21:16:46.663Z,42.10
2019-04-28T21:19:16.478Z,43.10
2019-04-28T21:21:46.284Z,44.50
2019-04-28T21:24:17.055Z,45.60
2019-04-28T21:26:48.681Z,47.20
2019-04-28T21:29:18.493Z,48.40
2019-04-28T21:31:48.309Z,49.10
2019-04-28T21:34:18.145Z,49.20
2019-04-28T21:36:48.018Z,47.60
2019-04-28T21:39:18.409Z,47.90
2019-04-28T21:41:48.217Z,50.90
2019-04-28T21:44:19.677Z,50.60
2019-04-28T21:46:51.130Z,51.30
2019-04-28T21:49:25.337Z,52.90
2019-04-28T21:51:55.221Z,54.30
2019-04-28T21:54:26.138Z,52.90
2019-04-28T21:56:55.954Z,53.10
2019-04-28T21:59:26.838Z,53.80
2019-04-28T22:01:56.721Z,52.80
2019-04-28T22:04:26.883Z,54.10
2019-04-28T22:06:56.965Z,54.50
2019-04-28T22:09:27.245Z,55.60
2019-04-28T22:11:57.138Z,54.60
2019-04-28T22:14:27.018Z,54.60
2019-04-28T22:16:56.902Z,54.30
2019-04-28T22:19:26.778Z,54.90
2019-04-28T22:21:57.658Z,53.80
2019-04-28T22:24:29.177Z,53.40
2019-04-28T22:26:59.003Z,54.20
2019-04-28T22:29:28.818Z,55.10
2019-04-28T22:31:58.628Z,55.60
2019-04-28T22:34:28.514Z,56.00
2019-04-28T22:36:58.393Z,55.60
2019-04-28T22:39:28.719Z,55.00
2019-04-28T22:41:58.537Z,57.80
2019-04-28T22:44:28.350Z,57.80
2019-04-28T22:46:58.181Z,58.70
2019-04-28T22:49:28.397Z,58.90
2019-04-28T22:51:58.288Z,58.10
2019-04-28T22:54:38.767Z,57.90
2019-04-28T23:00:32.222Z,57.70
2019-04-28T23:03:02.177Z,57.60
2019-04-28T23:05:31.990Z,57.50
2019-04-28T23:08:01.796Z,57.00
2019-04-28T23:10:31.693Z,57.60
2019-04-28T23:13:01.513Z,57.50
2019-04-28T23:15:31.385Z,57.40
2019-04-28T23:18:01.358Z,57.50
2019-04-28T23:20:32.810Z,58.00
2019-04-28T23:23:07.424Z,59.00
2019-04-28T23:25:37.296Z,58.30
2019-04-28T23:28:07.197Z,58.00
2019-04-28T23:31:03.023Z,57.80
2019-04-28T23:33:33.180Z,58.10
2019-04-28T23:36:03.362Z,58.30
2019-04-28T23:38:33.173Z,58.60
2019-04-28T23:41:04.637Z,59.00
2019-04-28T23:43:34.854Z,59.10
2019-04-28T23:46:05.071Z,58.60
2019-04-28T23:48:34.981Z,58.70
2019-04-28T23:51:09.158Z,58.80
2019-04-28T23:53:58.372Z,59.00
2019-04-28T23:56:28.350Z,59.40
2019-04-28T23:58:58.202Z,59.20
